»·PEaware :: PH-TIM KSNA-KCRQ

PH-TIM :: KSNA-KCRQ

FLIGHT INFORMATION

Flight Status: Arrived
Operator: Privately registered:
Netherlands
More flights under this callsign
Pilot: Tim P. (6337)
Aircraft: CESSNA 172 SKYHAWK
(C172)
More flights by this aircraft type
Origin: KSNA John Wayne-Orange Co
United States
Destination: KCRQ McClellan-Palomar
United States
More flights between these airports :: More routes between these airports
Route: V23 OCN
File this flight plan on PilotEdge
Remarks: I-2 rating
Altitude:
(Current/Filed)
5,000ft
Speed:
(Current/Filed)
105kts
Departed: 03-Sep-18 10:18 AM
Arrived: 03-Sep-18 11:00 AM
Distance/Time
Traveled:
44nm/0:42
Distance/Time
To Go:
Arrived

Flight Plot

Page will automatically refresh every two minutes.


Map Options




Map Legend


Flown Route
Filed Route
Departure Airport
Arrival Airport
Navaid (VOR, NDB)
Fix

Horizontal Profiles

Position Reports

Time Latitude Longitude Heading Altitude Ground
Speed
03-Sep-18 09:13 33.667632 -117.870968 221 60ft 0kts
03-Sep-18 09:14 33.667632 -117.870968 221 60ft 0kts
03-Sep-18 09:15 33.667632 -117.870968 221 60ft 0kts
03-Sep-18 09:16 33.667632 -117.870968 221 60ft 0kts
03-Sep-18 09:17 33.667632 -117.870968 221 60ft 0kts
03-Sep-18 09:18 33.667632 -117.870968 221 60ft 0kts
03-Sep-18 09:19 33.667632 -117.870968 221 60ft 0kts
03-Sep-18 09:20 33.667632 -117.870968 221 60ft 0kts
03-Sep-18 09:21 33.667632 -117.870968 221 60ft 0kts
03-Sep-18 09:22 33.667632 -117.870968 221 60ft 0kts
03-Sep-18 09:23 33.667632 -117.870968 221 60ft 0kts
03-Sep-18 09:24 33.667632 -117.870968 221 60ft 0kts
03-Sep-18 09:25 33.667632 -117.870968 221 60ft 0kts
03-Sep-18 09:26 33.667632 -117.870968 221 60ft 0kts
03-Sep-18 09:27 33.667632 -117.870968 221 60ft 0kts
03-Sep-18 09:28 33.667632 -117.870968 221 60ft 0kts
03-Sep-18 09:29 33.667632 -117.870968 221 60ft 0kts
03-Sep-18 09:30 33.667632 -117.870968 221 60ft 0kts
03-Sep-18 09:31 33.667632 -117.870968 221 60ft 0kts
03-Sep-18 09:32 33.667632 -117.870968 221 60ft 0kts
03-Sep-18 09:33 33.667632 -117.870968 221 60ft 0kts
03-Sep-18 09:34 33.667632 -117.870968 221 60ft 0kts
03-Sep-18 09:35 33.667632 -117.870968 221 60ft 0kts
03-Sep-18 09:36 33.667632 -117.870968 221 60ft 0kts
03-Sep-18 09:37 33.667632 -117.870968 221 60ft 0kts
03-Sep-18 09:38 33.667632 -117.870968 221 60ft 0kts
03-Sep-18 09:39 33.667632 -117.870968 221 60ft 0kts
03-Sep-18 09:40 33.667632 -117.870968 221 60ft 0kts
03-Sep-18 09:41 33.667632 -117.870968 221 60ft 0kts
03-Sep-18 09:42 33.667632 -117.870968 221 60ft 0kts
03-Sep-18 09:43 33.667632 -117.870968 221 60ft 0kts
03-Sep-18 09:44 33.667632 -117.870968 221 60ft 0kts
03-Sep-18 09:45 33.667632 -117.870968 221 60ft 0kts
03-Sep-18 09:45 33.667632 -117.870968 221 60ft 0kts
03-Sep-18 09:47 33.667632 -117.870968 221 60ft 0kts
03-Sep-18 09:48 33.667632 -117.870968 221 60ft 0kts
03-Sep-18 09:48 33.667632 -117.870968 221 60ft 0kts
03-Sep-18 09:49 33.667632 -117.870968 221 60ft 0kts
03-Sep-18 09:50 33.667632 -117.870968 221 60ft 0kts
03-Sep-18 09:52 33.667632 -117.870968 221 60ft 0kts
03-Sep-18 09:52 33.667632 -117.870968 221 60ft 0kts
03-Sep-18 09:53 33.667632 -117.870969 221 60ft 0kts
03-Sep-18 09:54 33.667632 -117.870969 220 60ft 0kts
03-Sep-18 09:55 33.667632 -117.870969 220 60ft 0kts
03-Sep-18 09:56 33.667632 -117.870969 220 60ft 0kts
03-Sep-18 09:57 33.667632 -117.870968 221 60ft 0kts
03-Sep-18 09:58 33.667632 -117.870968 221 60ft 0kts
03-Sep-18 09:59 33.667632 -117.870968 221 60ft 0kts
03-Sep-18 10:00 33.667632 -117.870968 221 60ft 0kts
03-Sep-18 10:01 33.667632 -117.870968 221 60ft 0kts
03-Sep-18 10:02 33.667632 -117.870968 221 60ft 0kts
03-Sep-18 10:03 33.667632 -117.870968 221 60ft 0kts
03-Sep-18 10:04 33.667632 -117.870968 221 60ft 0kts
03-Sep-18 10:05 33.667632 -117.870968 221 60ft 0kts
03-Sep-18 10:06 33.667632 -117.870968 221 60ft 0kts
03-Sep-18 10:07 33.667632 -117.870968 221 60ft 0kts
03-Sep-18 10:08 33.667632 -117.870968 221 60ft 0kts
03-Sep-18 10:09 33.667632 -117.870968 221 60ft 0kts
03-Sep-18 10:10 33.667632 -117.870968 221 60ft 0kts
03-Sep-18 10:11 33.667585 -117.871130 303 60ft 2kts
03-Sep-18 10:12 33.669679 -117.870318 40 60ft 13kts
03-Sep-18 10:13 33.672821 -117.867826 343 60ft 13kts
03-Sep-18 10:14 33.673265 -117.867889 37 60ft 0kts
03-Sep-18 10:15 33.675475 -117.866198 28 60ft 13kts
03-Sep-18 10:16 33.679190 -117.863849 27 60ft 13kts
03-Sep-18 10:17 33.679962 -117.863623 268 60ft 0kts
03-Sep-18 10:18 33.679962 -117.863623 268 60ft 0kts
03-Sep-18 10:19 33.679103 -117.864795 210 60ft 43kts
03-Sep-18 10:20 33.659237 -117.875322 189 614ft 85kts
03-Sep-18 10:21 33.635868 -117.880320 184 1301ft 88kts
03-Sep-18 10:22 33.612226 -117.885497 189 1967ft 87kts
03-Sep-18 10:23 33.595064 -117.875658 101 2559ft 80kts
03-Sep-18 10:24 33.587409 -117.851164 104 3132ft 80kts
03-Sep-18 10:25 33.578018 -117.826754 127 3616ft 85kts
03-Sep-18 10:26 33.562982 -117.805720 118 4113ft 82kts
03-Sep-18 10:27 33.549480 -117.784113 129 4617ft 80kts
03-Sep-18 10:28 33.533114 -117.765092 133 4988ft 91kts
03-Sep-18 10:29 33.512715 -117.740984 129 5020ft 108kts
03-Sep-18 10:30 33.490827 -117.716275 133 5074ft 108kts
03-Sep-18 10:31 33.468908 -117.690485 133 5040ft 111kts
03-Sep-18 10:32 33.447634 -117.662548 124 4884ft 117kts
03-Sep-18 10:33 33.425631 -117.635398 132 4897ft 109kts
03-Sep-18 10:34 33.404274 -117.610797 129 4944ft 104kts
03-Sep-18 10:35 33.382636 -117.585515 129 5051ft 109kts
03-Sep-18 10:36 33.360082 -117.559523 129 5096ft 113kts
03-Sep-18 10:37 33.337228 -117.533513 133 5096ft 114kts
03-Sep-18 10:38 33.315565 -117.505735 130 4955ft 114kts
03-Sep-18 10:39 33.292222 -117.481102 134 4971ft 108kts
03-Sep-18 10:40 33.270468 -117.456394 130 5033ft 108kts
03-Sep-18 10:41 33.248427 -117.432046 128 5111ft 108kts
03-Sep-18 10:42 33.243360 -117.394088 93 4570ft 124kts
03-Sep-18 10:43 33.239971 -117.352399 90 3992ft 118kts
03-Sep-18 10:44 33.238298 -117.314919 89 4022ft 111kts
03-Sep-18 10:45 33.236835 -117.277349 88 4101ft 113kts
03-Sep-18 10:46 33.237599 -117.239167 86 4099ft 117kts
03-Sep-18 10:47 33.239405 -117.199661 84 4025ft 118kts
03-Sep-18 10:48 33.241091 -117.161366 85 4073ft 116kts
03-Sep-18 10:49 33.242660 -117.123057 83 4130ft 115kts
03-Sep-18 10:50 33.244068 -117.084760 84 4165ft 117kts
03-Sep-18 10:51 33.246016 -117.045043 84 4053ft 119kts
03-Sep-18 10:52 33.239991 -117.008127 151 4037ft 124kts
03-Sep-18 10:53 33.206210 -117.021452 206 3943ft 131kts
03-Sep-18 10:54 33.173559 -117.039878 206 3958ft 131kts
03-Sep-18 10:55 33.161375 -117.078343 264 3935ft 127kts
03-Sep-18 10:56 33.154411 -117.120564 259 3212ft 125kts
03-Sep-18 10:57 33.147782 -117.161708 260 2336ft 126kts
03-Sep-18 10:58 33.140974 -117.201805 256 1629ft 122kts
03-Sep-18 10:59 33.134797 -117.241096 263 917ft 114kts
03-Sep-18 11:00 33.130242 -117.267720 262 412ft 60kts
03-Sep-18 11:02 33.127919 -117.279469 227 312ft 0kts
03-Sep-18 11:03 33.127719 -117.279605 177 311ft 8kts
03-Sep-18 11:04 33.126973 -117.277146 79 310ft 7kts
03-Sep-18 11:05 33.127924 -117.274503 164 306ft 0kts
03-Sep-18 11:06 33.127924 -117.274503 164 306ft 0kts
03-Sep-18 11:07 33.127924 -117.274503 164 306ft 0kts
03-Sep-18 11:08 33.127924 -117.274503 164 306ft 0kts
03-Sep-18 11:09 33.127924 -117.274503 164 306ft 0kts

Navigation Log

Ident Type
Flight plan parsing failed, navigation log unavailable